Terminal Aerodrome Forecast
Issued by NWS

Home | Current Version | Previous Version | Text Only | Print | Product List | Glossary On
Versions: 1 2 3 4 5 6 7 8 9 10 11 12 13 14
000
FTUS46 KSTO 041700
TAFMHR
TAF
KMHR 041734Z 0418/0518 22008KT P6SM BKN014
     FM041900 23008KT P6SM SCT014
     FM042000 23007KT P6SM SKC
     FM051100 18008KT P6SM SCT010=

USA.gov is the U.S. government's official web portal to all federal, state and local government web resources and services.